sensor_id;sensor_type;location;lat;lon;timestamp;temperature;humidity
44069;DHT22;29738;51.234;5.484;2022-12-29T00:01:39;10.90;99.90
44069;DHT22;29738;51.234;5.484;2022-12-29T00:04:05;10.90;99.90
44069;DHT22;29738;51.234;5.484;2022-12-29T00:06:31;10.90;99.90
44069;DHT22;29738;51.234;5.484;2022-12-29T00:08:57;10.90;99.90
44069;DHT22;29738;51.234;5.484;2022-12-29T00:11:25;10.90;99.90
44069;DHT22;29738;51.234;5.484;2022-12-29T00:13:52;10.90;99.90
44069;DHT22;29738;51.234;5.484;2022-12-29T00:16:40;11.00;99.90
44069;DHT22;29738;51.234;5.484;2022-12-29T00:19:06;11.00;99.90
44069;DHT22;29738;51.234;5.484;2022-12-29T00:21:32;11.10;99.90
44069;DHT22;29738;51.234;5.484;2022-12-29T00:24:21;11.10;99.90
44069;DHT22;29738;51.234;5.484;2022-12-29T00:29:46;11.20;99.90
44069;DHT22;29738;51.234;5.484;2022-12-29T00:32:30;11.10;99.90
44069;DHT22;29738;51.234;5.484;2022-12-29T00:35:29;11.20;99.90
44069;DHT22;29738;51.234;5.484;2022-12-29T00:37:58;11.10;99.90
44069;DHT22;29738;51.234;5.484;2022-12-29T00:40:43;11.20;99.90
44069;DHT22;29738;51.234;5.484;2022-12-29T00:43:27;11.20;99.90
44069;DHT22;29738;51.234;5.484;2022-12-29T00:46:12;11.30;99.90
44069;DHT22;29738;51.234;5.484;2022-12-29T00:48:37;11.30;99.90
44069;DHT22;29738;51.234;5.484;2022-12-29T00:51:22;11.30;99.90
44069;DHT22;29738;51.234;5.484;2022-12-29T00:53:47;11.40;99.90
44069;DHT22;29738;51.234;5.484;2022-12-29T00:56:13;11.40;99.90
44069;DHT22;29738;51.234;5.484;2022-12-29T00:58:39;11.40;99.90
44069;DHT22;29738;51.234;5.484;2022-12-29T01:01:06;11.40;99.90
44069;DHT22;29738;51.234;5.484;2022-12-29T01:03:33;11.40;99.90
44069;DHT22;29738;51.234;5.484;2022-12-29T01:06:05;11.50;99.90
44069;DHT22;29738;51.234;5.484;2022-12-29T01:08:31;11.60;99.90
44069;DHT22;29738;51.234;5.484;2022-12-29T01:11:00;11.50;99.90
44069;DHT22;29738;51.234;5.484;2022-12-29T01:13:27;11.40;99.90
44069;DHT22;29738;51.234;5.484;2022-12-29T01:15:56;11.40;99.90
44069;DHT22;29738;51.234;5.484;2022-12-29T01:18:22;11.50;99.90
44069;DHT22;29738;51.234;5.484;2022-12-29T01:20:48;11.60;99.90
44069;DHT22;29738;51.234;5.484;2022-12-29T01:23:14;11.50;99.90
44069;DHT22;29738;51.234;5.484;2022-12-29T01:25:40;11.60;99.90
44069;DHT22;29738;51.234;5.484;2022-12-29T01:28:05;11.60;99.90
44069;DHT22;29738;51.234;5.484;2022-12-29T01:30:34;11.60;99.90
44069;DHT22;29738;51.234;5.484;2022-12-29T01:33:00;11.60;99.90
44069;DHT22;29738;51.234;5.484;2022-12-29T01:35:25;11.60;99.90
44069;DHT22;29738;51.234;5.484;2022-12-29T01:37:51;11.70;99.90
44069;DHT22;29738;51.234;5.484;2022-12-29T01:40:17;11.60;99.90
44069;DHT22;29738;51.234;5.484;2022-12-29T01:42:42;11.60;99.90
44069;DHT22;29738;51.234;5.484;2022-12-29T01:45:10;11.60;99.90
44069;DHT22;29738;51.234;5.484;2022-12-29T01:47:57;11.70;99.90
44069;DHT22;29738;51.234;5.484;2022-12-29T01:50:33;11.70;99.90
44069;DHT22;29738;51.234;5.484;2022-12-29T01:53:19;11.60;99.90
44069;DHT22;29738;51.234;5.484;2022-12-29T01:55:49;11.70;99.90
44069;DHT22;29738;51.234;5.484;2022-12-29T01:58:18;11.70;99.90
44069;DHT22;29738;51.234;5.484;2022-12-29T02:00:44;11.80;99.90
44069;DHT22;29738;51.234;5.484;2022-12-29T02:03:10;11.70;99.90
44069;DHT22;29738;51.234;5.484;2022-12-29T02:08:09;11.70;99.90
44069;DHT22;29738;51.234;5.484;2022-12-29T02:10:37;11.70;99.90
44069;DHT22;29738;51.234;5.484;2022-12-29T02:13:03;11.70;99.90
44069;DHT22;29738;51.234;5.484;2022-12-29T02:15:56;11.70;99.90
44069;DHT22;29738;51.234;5.484;2022-12-29T02:27:31;11.40;99.90
44069;DHT22;29738;51.234;5.484;2022-12-29T02:35:58;11.20;99.90
44069;DHT22;29738;51.234;5.484;2022-12-29T02:41:02;11.20;99.90
44069;DHT22;29738;51.234;5.484;2022-12-29T02:44:12;11.10;99.90
44069;DHT22;29738;51.234;5.484;2022-12-29T02:50:13;11.00;99.90
44069;DHT22;29738;51.234;5.484;2022-12-29T02:52:57;11.00;99.90
44069;DHT22;29738;51.234;5.484;2022-12-29T02:55:24;10.90;99.90
44069;DHT22;29738;51.234;5.484;2022-12-29T02:58:17;10.80;99.90
44069;DHT22;29738;51.234;5.484;2022-12-29T03:12:13;10.60;99.90
44069;DHT22;29738;51.234;5.484;2022-12-29T03:14:59;10.50;99.90
44069;DHT22;29738;51.234;5.484;2022-12-29T03:17:56;10.40;99.90
44069;DHT22;29738;51.234;5.484;2022-12-29T03:20:49;10.40;99.90
44069;DHT22;29738;51.234;5.484;2022-12-29T03:23:19;10.40;99.90
44069;DHT22;29738;51.234;5.484;2022-12-29T03:25:48;10.40;99.90
44069;DHT22;29738;51.234;5.484;2022-12-29T03:28:28;10.40;99.90
44069;DHT22;29738;51.234;5.484;2022-12-29T03:30:56;10.40;99.90
44069;DHT22;29738;51.234;5.484;2022-12-29T03:33:25;10.30;99.90
44069;DHT22;29738;51.234;5.484;2022-12-29T03:35:56;10.30;99.90
44069;DHT22;29738;51.234;5.484;2022-12-29T03:38:42;10.20;99.90
44069;DHT22;29738;51.234;5.484;2022-12-29T03:41:13;10.30;99.90
44069;DHT22;29738;51.234;5.484;2022-12-29T03:43:40;10.30;99.90
44069;DHT22;29738;51.234;5.484;2022-12-29T03:46:06;10.30;99.90
44069;DHT22;29738;51.234;5.484;2022-12-29T03:48:32;10.20;99.90
44069;DHT22;29738;51.234;5.484;2022-12-29T03:50:58;10.30;99.90
44069;DHT22;29738;51.234;5.484;2022-12-29T03:53:24;10.30;99.90
44069;DHT22;29738;51.234;5.484;2022-12-29T03:55:50;10.30;99.90
44069;DHT22;29738;51.234;5.484;2022-12-29T03:58:16;10.10;99.90
44069;DHT22;29738;51.234;5.484;2022-12-29T04:00:42;10.20;99.90
44069;DHT22;29738;51.234;5.484;2022-12-29T04:03:07;10.20;99.90
44069;DHT22;29738;51.234;5.484;2022-12-29T04:05:33;10.20;99.90
44069;DHT22;29738;51.234;5.484;2022-12-29T04:07:59;10.10;99.90
44069;DHT22;29738;51.234;5.484;2022-12-29T04:10:25;10.10;99.90
44069;DHT22;29738;51.234;5.484;2022-12-29T04:12:51;10.00;99.90
44069;DHT22;29738;51.234;5.484;2022-12-29T04:15:17;10.00;99.90
44069;DHT22;29738;51.234;5.484;2022-12-29T04:17:42;10.00;99.90
44069;DHT22;29738;51.234;5.484;2022-12-29T04:20:08;10.00;99.90
44069;DHT22;29738;51.234;5.484;2022-12-29T04:23:03;10.00;99.90
44069;DHT22;29738;51.234;5.484;2022-12-29T04:25:30;10.00;99.90
44069;DHT22;29738;51.234;5.484;2022-12-29T04:27:56;10.00;99.90
44069;DHT22;29738;51.234;5.484;2022-12-29T04:30:22;10.00;99.90
44069;DHT22;29738;51.234;5.484;2022-12-29T04:32:48;10.00;99.90
44069;DHT22;29738;51.234;5.484;2022-12-29T04:35:14;9.90;99.90
44069;DHT22;29738;51.234;5.484;2022-12-29T04:37:40;10.00;99.90
44069;DHT22;29738;51.234;5.484;2022-12-29T04:40:06;9.90;99.90
44069;DHT22;29738;51.234;5.484;2022-12-29T04:42:32;9.90;99.90
44069;DHT22;29738;51.234;5.484;2022-12-29T04:44:57;9.80;99.90
44069;DHT22;29738;51.234;5.484;2022-12-29T04:47:23;9.80;99.90
44069;DHT22;29738;51.234;5.484;2022-12-29T04:49:49;9.90;99.90
44069;DHT22;29738;51.234;5.484;2022-12-29T04:52:15;9.90;99.90
44069;DHT22;29738;51.234;5.484;2022-12-29T04:54:40;10.00;99.90
44069;DHT22;29738;51.234;5.484;2022-12-29T04:57:06;10.00;99.90
44069;DHT22;29738;51.234;5.484;2022-12-29T04:59:32;10.00;99.90
44069;DHT22;29738;51.234;5.484;2022-12-29T05:01:57;10.00;99.90
44069;DHT22;29738;51.234;5.484;2022-12-29T05:04:23;10.10;99.90
44069;DHT22;29738;51.234;5.484;2022-12-29T05:06:49;10.10;99.90
44069;DHT22;29738;51.234;5.484;2022-12-29T05:09:15;10.10;99.90
44069;DHT22;29738;51.234;5.484;2022-12-29T05:11:40;10.10;99.90
44069;DHT22;29738;51.234;5.484;2022-12-29T05:14:06;10.10;99.90
44069;DHT22;29738;51.234;5.484;2022-12-29T05:16:32;10.10;99.90
44069;DHT22;29738;51.234;5.484;2022-12-29T05:18:57;10.10;99.90
44069;DHT22;29738;51.234;5.484;2022-12-29T05:21:23;10.10;99.90
44069;DHT22;29738;51.234;5.484;2022-12-29T05:23:49;10.10;99.90
44069;DHT22;29738;51.234;5.484;2022-12-29T05:26:15;10.10;99.90
44069;DHT22;29738;51.234;5.484;2022-12-29T05:28:40;10.20;99.90
44069;DHT22;29738;51.234;5.484;2022-12-29T05:31:06;10.30;99.90
44069;DHT22;29738;51.234;5.484;2022-12-29T05:33:35;10.30;99.90
44069;DHT22;29738;51.234;5.484;2022-12-29T05:36:05;10.30;99.90
44069;DHT22;29738;51.234;5.484;2022-12-29T05:38:31;10.30;99.90
44069;DHT22;29738;51.234;5.484;2022-12-29T05:40:57;10.30;99.90
44069;DHT22;29738;51.234;5.484;2022-12-29T05:43:22;10.20;99.90
44069;DHT22;29738;51.234;5.484;2022-12-29T05:45:49;10.30;99.90
44069;DHT22;29738;51.234;5.484;2022-12-29T05:48:15;10.30;99.90
44069;DHT22;29738;51.234;5.484;2022-12-29T05:50:41;10.30;99.90
44069;DHT22;29738;51.234;5.484;2022-12-29T05:53:07;10.40;99.90
44069;DHT22;29738;51.234;5.484;2022-12-29T05:55:34;10.40;99.90
44069;DHT22;29738;51.234;5.484;2022-12-29T05:58:02;10.40;99.90
44069;DHT22;29738;51.234;5.484;2022-12-29T06:00:28;10.40;99.90
44069;DHT22;29738;51.234;5.484;2022-12-29T06:02:54;10.40;99.90
44069;DHT22;29738;51.234;5.484;2022-12-29T06:05:19;10.40;99.90
44069;DHT22;29738;51.234;5.484;2022-12-29T06:07:45;10.40;99.90
44069;DHT22;29738;51.234;5.484;2022-12-29T06:10:11;10.40;99.90
44069;DHT22;29738;51.234;5.484;2022-12-29T06:12:36;10.40;99.90
44069;DHT22;29738;51.234;5.484;2022-12-29T06:15:02;10.40;99.90
44069;DHT22;29738;51.234;5.484;2022-12-29T06:17:28;10.40;99.90
44069;DHT22;29738;51.234;5.484;2022-12-29T06:19:54;10.50;99.90
44069;DHT22;29738;51.234;5.484;2022-12-29T06:22:20;10.50;99.90
44069;DHT22;29738;51.234;5.484;2022-12-29T06:24:45;10.60;99.90
44069;DHT22;29738;51.234;5.484;2022-12-29T06:27:14;10.60;99.90
44069;DHT22;29738;51.234;5.484;2022-12-29T06:29:40;10.60;99.90
44069;DHT22;29738;51.234;5.484;2022-12-29T06:32:06;10.60;99.90
44069;DHT22;29738;51.234;5.484;2022-12-29T06:34:32;10.60;99.90
44069;DHT22;29738;51.234;5.484;2022-12-29T06:36:58;10.70;99.90
44069;DHT22;29738;51.234;5.484;2022-12-29T06:39:23;10.70;99.90
44069;DHT22;29738;51.234;5.484;2022-12-29T06:41:52;10.70;99.90
44069;DHT22;29738;51.234;5.484;2022-12-29T06:44:18;10.60;99.90
44069;DHT22;29738;51.234;5.484;2022-12-29T06:46:44;10.60;99.90
44069;DHT22;29738;51.234;5.484;2022-12-29T06:49:10;10.70;99.90
44069;DHT22;29738;51.234;5.484;2022-12-29T06:51:35;10.70;99.90
44069;DHT22;29738;51.234;5.484;2022-12-29T06:54:01;10.80;99.90
44069;DHT22;29738;51.234;5.484;2022-12-29T06:56:27;10.70;99.90
44069;DHT22;29738;51.234;5.484;2022-12-29T06:58:53;10.70;99.90
44069;DHT22;29738;51.234;5.484;2022-12-29T07:01:18;10.70;99.90
44069;DHT22;29738;51.234;5.484;2022-12-29T07:03:44;10.70;99.90
44069;DHT22;29738;51.234;5.484;2022-12-29T07:06:10;10.70;99.90
44069;DHT22;29738;51.234;5.484;2022-12-29T07:08:36;10.70;99.90
44069;DHT22;29738;51.234;5.484;2022-12-29T07:11:04;10.70;99.90
44069;DHT22;29738;51.234;5.484;2022-12-29T07:13:29;10.60;99.90
44069;DHT22;29738;51.234;5.484;2022-12-29T07:15:55;10.60;99.90
44069;DHT22;29738;51.234;5.484;2022-12-29T07:18:21;10.60;99.90
44069;DHT22;29738;51.234;5.484;2022-12-29T07:20:47;10.60;99.90
44069;DHT22;29738;51.234;5.484;2022-12-29T07:23:13;10.70;99.90
44069;DHT22;29738;51.234;5.484;2022-12-29T07:25:38;10.70;99.90
44069;DHT22;29738;51.234;5.484;2022-12-29T07:28:06;10.70;99.90
44069;DHT22;29738;51.234;5.484;2022-12-29T07:30:31;10.80;99.90
44069;DHT22;29738;51.234;5.484;2022-12-29T07:32:57;10.80;99.90
44069;DHT22;29738;51.234;5.484;2022-12-29T07:35:23;10.80;99.90
44069;DHT22;29738;51.234;5.484;2022-12-29T07:37:49;10.70;99.90
44069;DHT22;29738;51.234;5.484;2022-12-29T07:40:15;10.80;99.90
44069;DHT22;29738;51.234;5.484;2022-12-29T07:42:40;10.90;99.90
44069;DHT22;29738;51.234;5.484;2022-12-29T07:45:06;10.90;99.90
44069;DHT22;29738;51.234;5.484;2022-12-29T07:47:32;10.80;99.90
44069;DHT22;29738;51.234;5.484;2022-12-29T07:49:58;10.80;99.90
44069;DHT22;29738;51.234;5.484;2022-12-29T07:52:24;10.80;99.90
44069;DHT22;29738;51.234;5.484;2022-12-29T07:54:50;10.80;99.90
44069;DHT22;29738;51.234;5.484;2022-12-29T07:57:15;10.80;99.90
44069;DHT22;29738;51.234;5.484;2022-12-29T07:59:41;10.80;99.90
44069;DHT22;29738;51.234;5.484;2022-12-29T08:02:10;10.80;99.90
44069;DHT22;29738;51.234;5.484;2022-12-29T08:04:36;10.80;99.90
44069;DHT22;29738;51.234;5.484;2022-12-29T08:07:02;10.70;99.90
44069;DHT22;29738;51.234;5.484;2022-12-29T08:09:28;10.70;99.90
44069;DHT22;29738;51.234;5.484;2022-12-29T08:11:54;10.70;99.90
44069;DHT22;29738;51.234;5.484;2022-12-29T08:14:20;10.70;99.90
44069;DHT22;29738;51.234;5.484;2022-12-29T08:16:45;10.60;99.90
44069;DHT22;29738;51.234;5.484;2022-12-29T08:19:12;10.80;99.90
44069;DHT22;29738;51.234;5.484;2022-12-29T08:21:37;10.90;99.90
44069;DHT22;29738;51.234;5.484;2022-12-29T08:24:04;10.90;99.90
44069;DHT22;29738;51.234;5.484;2022-12-29T08:26:30;11.00;99.90
44069;DHT22;29738;51.234;5.484;2022-12-29T08:28:55;11.00;99.90
44069;DHT22;29738;51.234;5.484;2022-12-29T08:31:22;11.00;99.90
44069;DHT22;29738;51.234;5.484;2022-12-29T08:33:48;10.90;99.90
44069;DHT22;29738;51.234;5.484;2022-12-29T08:36:14;11.00;99.90
44069;DHT22;29738;51.234;5.484;2022-12-29T08:38:40;11.00;99.90
44069;DHT22;29738;51.234;5.484;2022-12-29T08:41:05;11.00;99.90
44069;DHT22;29738;51.234;5.484;2022-12-29T08:43:31;10.90;99.90
44069;DHT22;29738;51.234;5.484;2022-12-29T08:45:58;10.90;99.90
44069;DHT22;29738;51.234;5.484;2022-12-29T08:48:24;10.90;99.90
44069;DHT22;29738;51.234;5.484;2022-12-29T08:50:50;11.00;99.90
44069;DHT22;29738;51.234;5.484;2022-12-29T08:53:17;10.90;99.90
44069;DHT22;29738;51.234;5.484;2022-12-29T08:55:54;11.00;99.90
44069;DHT22;29738;51.234;5.484;2022-12-29T08:58:20;10.90;99.90
44069;DHT22;29738;51.234;5.484;2022-12-29T09:00:45;10.90;99.90
44069;DHT22;29738;51.234;5.484;2022-12-29T09:03:11;10.90;99.90
44069;DHT22;29738;51.234;5.484;2022-12-29T09:05:37;10.90;99.90
44069;DHT22;29738;51.234;5.484;2022-12-29T09:08:03;10.90;99.90
44069;DHT22;29738;51.234;5.484;2022-12-29T09:10:30;10.90;99.90
44069;DHT22;29738;51.234;5.484;2022-12-29T09:12:55;10.90;99.90
44069;DHT22;29738;51.234;5.484;2022-12-29T09:15:21;10.90;99.90
44069;DHT22;29738;51.234;5.484;2022-12-29T09:17:47;10.90;99.90
44069;DHT22;29738;51.234;5.484;2022-12-29T09:20:15;10.90;99.90
44069;DHT22;29738;51.234;5.484;2022-12-29T09:22:41;10.90;99.90
44069;DHT22;29738;51.234;5.484;2022-12-29T09:25:07;10.90;99.90
44069;DHT22;29738;51.234;5.484;2022-12-29T09:27:34;11.00;99.90
44069;DHT22;29738;51.234;5.484;2022-12-29T09:30:01;11.10;99.90
44069;DHT22;29738;51.234;5.484;2022-12-29T09:32:26;11.00;99.90
44069;DHT22;29738;51.234;5.484;2022-12-29T09:34:52;11.00;99.90
44069;DHT22;29738;51.234;5.484;2022-12-29T09:37:18;11.00;99.90
44069;DHT22;29738;51.234;5.484;2022-12-29T09:39:43;11.00;99.90
44069;DHT22;29738;51.234;5.484;2022-12-29T09:42:23;11.10;99.90
44069;DHT22;29738;51.234;5.484;2022-12-29T09:45:10;11.00;99.90
44069;DHT22;29738;51.234;5.484;2022-12-29T09:47:39;11.00;99.90
44069;DHT22;29738;51.234;5.484;2022-12-29T09:50:28;11.10;99.90
44069;DHT22;29738;51.234;5.484;2022-12-29T09:55:49;11.30;99.90
44069;DHT22;29738;51.234;5.484;2022-12-29T09:58:35;11.30;99.90
44069;DHT22;29738;51.234;5.484;2022-12-29T10:01:05;11.30;99.90
44069;DHT22;29738;51.234;5.484;2022-12-29T10:03:54;11.50;99.90
44069;DHT22;29738;51.234;5.484;2022-12-29T10:06:31;11.50;99.90
44069;DHT22;29738;51.234;5.484;2022-12-29T10:17:24;11.20;99.90
44069;DHT22;29738;51.234;5.484;2022-12-29T10:25:34;11.10;99.90
44069;DHT22;29738;51.234;5.484;2022-12-29T10:28:06;11.10;99.90
44069;DHT22;29738;51.234;5.484;2022-12-29T10:30:36;11.10;99.90
44069;DHT22;29738;51.234;5.484;2022-12-29T10:33:05;11.10;99.90
44069;DHT22;29738;51.234;5.484;2022-12-29T10:35:38;11.10;99.90
44069;DHT22;29738;51.234;5.484;2022-12-29T10:38:38;11.10;99.90
44069;DHT22;29738;51.234;5.484;2022-12-29T10:41:21;11.00;99.90
44069;DHT22;29738;51.234;5.484;2022-12-29T10:43:52;11.10;99.90
44069;DHT22;29738;51.234;5.484;2022-12-29T10:46:23;11.20;99.90
44069;DHT22;29738;51.234;5.484;2022-12-29T10:48:49;11.20;99.90
44069;DHT22;29738;51.234;5.484;2022-12-29T10:51:30;11.10;99.90
44069;DHT22;29738;51.234;5.484;2022-12-29T10:56:44;11.10;99.90
44069;DHT22;29738;51.234;5.484;2022-12-29T10:59:27;11.10;99.90
44069;DHT22;29738;51.234;5.484;2022-12-29T11:04:57;11.10;99.90
44069;DHT22;29738;51.234;5.484;2022-12-29T11:07:28;11.20;99.90
44069;DHT22;29738;51.234;5.484;2022-12-29T11:09:56;11.30;99.90
44069;DHT22;29738;51.234;5.484;2022-12-29T11:12:40;11.20;99.90
44069;DHT22;29738;51.234;5.484;2022-12-29T11:17:50;11.40;99.90
44069;DHT22;29738;51.234;5.484;2022-12-29T11:20:36;11.30;99.90
44069;DHT22;29738;51.234;5.484;2022-12-29T11:23:28;11.20;99.90
44069;DHT22;29738;51.234;5.484;2022-12-29T11:28:41;11.30;99.90
44069;DHT22;29738;51.234;5.484;2022-12-29T11:31:08;11.20;99.90
44069;DHT22;29738;51.234;5.484;2022-12-29T11:33:36;11.30;99.90
44069;DHT22;29738;51.234;5.484;2022-12-29T11:36:13;11.30;99.90
44069;DHT22;29738;51.234;5.484;2022-12-29T11:38:48;11.30;99.90
44069;DHT22;29738;51.234;5.484;2022-12-29T11:41:21;11.30;99.90
44069;DHT22;29738;51.234;5.484;2022-12-29T11:43:48;11.30;99.90
44069;DHT22;29738;51.234;5.484;2022-12-29T11:46:24;11.30;99.90
44069;DHT22;29738;51.234;5.484;2022-12-29T11:48:51;11.30;99.90
44069;DHT22;29738;51.234;5.484;2022-12-29T11:53:59;11.30;99.90
44069;DHT22;29738;51.234;5.484;2022-12-29T11:56:41;11.40;99.90
44069;DHT22;29738;51.234;5.484;2022-12-29T12:02:02;11.40;99.90
44069;DHT22;29738;51.234;5.484;2022-12-29T12:04:36;11.40;99.90
44069;DHT22;29738;51.234;5.484;2022-12-29T12:07:15;11.40;99.90
44069;DHT22;29738;51.234;5.484;2022-12-29T12:09:58;11.40;99.90
44069;DHT22;29738;51.234;5.484;2022-12-29T12:12:41;11.30;99.90
44069;DHT22;29738;51.234;5.484;2022-12-29T12:15:20;11.20;99.90
44069;DHT22;29738;51.234;5.484;2022-12-29T12:18:01;11.00;99.90
44069;DHT22;29738;51.234;5.484;2022-12-29T12:20:49;11.00;99.90
44069;DHT22;29738;51.234;5.484;2022-12-29T12:26:15;10.80;99.90
44069;DHT22;29738;51.234;5.484;2022-12-29T12:34:37;10.70;99.90
44069;DHT22;29738;51.234;5.484;2022-12-29T12:49:22;10.70;99.90
44069;DHT22;29738;51.234;5.484;2022-12-29T12:51:40;10.70;99.90
44069;DHT22;29738;51.234;5.484;2022-12-29T13:00:17;10.40;99.90
44069;DHT22;29738;51.234;5.484;2022-12-29T13:08:56;10.30;99.90
44069;DHT22;29738;51.234;5.484;2022-12-29T13:14:10;10.40;99.90
44069;DHT22;29738;51.234;5.484;2022-12-29T13:17:14;10.60;99.90
44069;DHT22;29738;51.234;5.484;2022-12-29T13:19:41;10.60;99.90
44069;DHT22;29738;51.234;5.484;2022-12-29T13:22:37;10.70;99.90
44069;DHT22;29738;51.234;5.484;2022-12-29T13:31:03;10.80;99.90
44069;DHT22;29738;51.234;5.484;2022-12-29T13:36:43;10.80;99.90
44069;DHT22;29738;51.234;5.484;2022-12-29T13:42:03;10.80;99.90
44069;DHT22;29738;51.234;5.484;2022-12-29T13:46:58;10.80;99.90
44069;DHT22;29738;51.234;5.484;2022-12-29T13:49:26;10.70;99.90
44069;DHT22;29738;51.234;5.484;2022-12-29T13:51:57;10.70;99.90
44069;DHT22;29738;51.234;5.484;2022-12-29T13:57:48;10.60;99.90
44069;DHT22;29738;51.234;5.484;2022-12-29T14:00:19;10.60;99.90
44069;DHT22;29738;51.234;5.484;2022-12-29T14:07:45;10.70;99.90
44069;DHT22;29738;51.234;5.484;2022-12-29T14:10:37;10.50;99.90
44069;DHT22;29738;51.234;5.484;2022-12-29T14:13:14;10.50;99.90
44069;DHT22;29738;51.234;5.484;2022-12-29T14:15:44;10.50;99.90
44069;DHT22;29738;51.234;5.484;2022-12-29T14:20:36;10.30;99.90
44069;DHT22;29738;51.234;5.484;2022-12-29T14:28:45;10.30;99.90
44069;DHT22;29738;51.234;5.484;2022-12-29T14:33:41;10.20;99.90
44069;DHT22;29738;51.234;5.484;2022-12-29T14:42:05;10.20;99.90
44069;DHT22;29738;51.234;5.484;2022-12-29T14:44:32;10.10;99.90
44069;DHT22;29738;51.234;5.484;2022-12-29T14:47:01;10.20;99.90
44069;DHT22;29738;51.234;5.484;2022-12-29T14:49:33;10.20;99.90
44069;DHT22;29738;51.234;5.484;2022-12-29T14:54:45;10.30;99.90
44069;DHT22;29738;51.234;5.484;2022-12-29T14:57:29;10.20;99.90
44069;DHT22;29738;51.234;5.484;2022-12-29T15:00:08;10.20;99.90
44069;DHT22;29738;51.234;5.484;2022-12-29T15:02:41;10.30;99.90
44069;DHT22;29738;51.234;5.484;2022-12-29T15:07:56;10.30;99.90
44069;DHT22;29738;51.234;5.484;2022-12-29T15:10:24;10.30;99.90
44069;DHT22;29738;51.234;5.484;2022-12-29T15:13:00;10.30;99.90
44069;DHT22;29738;51.234;5.484;2022-12-29T15:15:28;10.30;99.90
44069;DHT22;29738;51.234;5.484;2022-12-29T15:17:55;10.30;99.90
44069;DHT22;29738;51.234;5.484;2022-12-29T15:20:28;10.20;99.90
44069;DHT22;29738;51.234;5.484;2022-12-29T15:23:02;10.20;99.90
44069;DHT22;29738;51.234;5.484;2022-12-29T15:25:28;10.10;99.90
44069;DHT22;29738;51.234;5.484;2022-12-29T15:27:59;9.80;99.90
44069;DHT22;29738;51.234;5.484;2022-12-29T15:30:25;9.50;99.90
44069;DHT22;29738;51.234;5.484;2022-12-29T15:32:54;9.30;99.90
44069;DHT22;29738;51.234;5.484;2022-12-29T15:37:55;9.10;99.90
44069;DHT22;29738;51.234;5.484;2022-12-29T15:45:50;8.80;99.90
44069;DHT22;29738;51.234;5.484;2022-12-29T15:48:22;8.80;99.90
44069;DHT22;29738;51.234;5.484;2022-12-29T15:50:49;8.70;99.90
44069;DHT22;29738;51.234;5.484;2022-12-29T15:53:30;8.60;99.90
44069;DHT22;29738;51.234;5.484;2022-12-29T15:56:06;8.60;99.90
44069;DHT22;29738;51.234;5.484;2022-12-29T15:58:41;8.60;99.90
44069;DHT22;29738;51.234;5.484;2022-12-29T16:01:24;8.60;99.90
44069;DHT22;29738;51.234;5.484;2022-12-29T16:03:53;8.60;99.90
44069;DHT22;29738;51.234;5.484;2022-12-29T16:06:35;8.60;99.90
44069;DHT22;29738;51.234;5.484;2022-12-29T16:09:14;8.60;99.90
44069;DHT22;29738;51.234;5.484;2022-12-29T16:11:50;8.60;99.90
44069;DHT22;29738;51.234;5.484;2022-12-29T16:14:32;8.50;99.90
44069;DHT22;29738;51.234;5.484;2022-12-29T16:17:02;8.50;99.90
44069;DHT22;29738;51.234;5.484;2022-12-29T16:19:37;8.40;99.90
44069;DHT22;29738;51.234;5.484;2022-12-29T16:22:11;8.40;99.90
44069;DHT22;29738;51.234;5.484;2022-12-29T16:24:39;8.40;99.90
44069;DHT22;29738;51.234;5.484;2022-12-29T16:27:21;8.30;99.90
44069;DHT22;29738;51.234;5.484;2022-12-29T16:29:53;8.30;99.90
44069;DHT22;29738;51.234;5.484;2022-12-29T16:32:28;8.30;99.90
44069;DHT22;29738;51.234;5.484;2022-12-29T16:35:16;8.20;99.90
44069;DHT22;29738;51.234;5.484;2022-12-29T16:37:43;8.10;99.90
44069;DHT22;29738;51.234;5.484;2022-12-29T16:40:25;8.10;99.90
44069;DHT22;29738;51.234;5.484;2022-12-29T16:43:01;8.10;99.90
44069;DHT22;29738;51.234;5.484;2022-12-29T16:48:25;8.20;99.90
44069;DHT22;29738;51.234;5.484;2022-12-29T16:50:51;8.20;99.90
44069;DHT22;29738;51.234;5.484;2022-12-29T16:53:28;8.20;99.90
44069;DHT22;29738;51.234;5.484;2022-12-29T16:55:57;8.20;99.90
44069;DHT22;29738;51.234;5.484;2022-12-29T16:58:27;8.30;99.90
44069;DHT22;29738;51.234;5.484;2022-12-29T17:00:59;8.30;99.90
44069;DHT22;29738;51.234;5.484;2022-12-29T17:03:32;8.20;99.90
44069;DHT22;29738;51.234;5.484;2022-12-29T17:05:59;8.30;99.90
44069;DHT22;29738;51.234;5.484;2022-12-29T17:08:25;8.20;99.90
44069;DHT22;29738;51.234;5.484;2022-12-29T17:10:52;8.10;99.90
44069;DHT22;29738;51.234;5.484;2022-12-29T17:13:53;8.10;99.90
44069;DHT22;29738;51.234;5.484;2022-12-29T17:16:19;8.00;99.90
44069;DHT22;29738;51.234;5.484;2022-12-29T17:18:45;7.90;99.90
44069;DHT22;29738;51.234;5.484;2022-12-29T17:21:11;7.80;99.90
44069;DHT22;29738;51.234;5.484;2022-12-29T17:23:38;7.90;99.90
44069;DHT22;29738;51.234;5.484;2022-12-29T17:26:04;7.90;99.90
44069;DHT22;29738;51.234;5.484;2022-12-29T17:28:31;7.90;99.90
44069;DHT22;29738;51.234;5.484;2022-12-29T17:31:02;8.00;99.90
44069;DHT22;29738;51.234;5.484;2022-12-29T17:33:31;7.90;99.90
44069;DHT22;29738;51.234;5.484;2022-12-29T17:36:00;8.00;99.90
44069;DHT22;29738;51.234;5.484;2022-12-29T17:38:29;7.80;99.90
44069;DHT22;29738;51.234;5.484;2022-12-29T17:40:56;7.90;99.90
44069;DHT22;29738;51.234;5.484;2022-12-29T17:43:22;7.80;99.90
44069;DHT22;29738;51.234;5.484;2022-12-29T17:45:53;7.90;99.90
44069;DHT22;29738;51.234;5.484;2022-12-29T17:48:20;7.90;99.90
44069;DHT22;29738;51.234;5.484;2022-12-29T17:50:47;7.70;99.90
44069;DHT22;29738;51.234;5.484;2022-12-29T17:53:20;7.50;99.90
44069;DHT22;29738;51.234;5.484;2022-12-29T17:55:46;7.50;99.90
44069;DHT22;29738;51.234;5.484;2022-12-29T17:58:18;7.40;99.90
44069;DHT22;29738;51.234;5.484;2022-12-29T18:00:45;7.30;99.90
44069;DHT22;29738;51.234;5.484;2022-12-29T18:03:16;7.50;99.90
44069;DHT22;29738;51.234;5.484;2022-12-29T18:05:42;7.60;99.90
44069;DHT22;29738;51.234;5.484;2022-12-29T18:08:09;7.70;99.90
44069;DHT22;29738;51.234;5.484;2022-12-29T18:10:35;7.80;99.90
44069;DHT22;29738;51.234;5.484;2022-12-29T18:13:01;7.80;99.90
44069;DHT22;29738;51.234;5.484;2022-12-29T18:15:28;7.80;99.90
44069;DHT22;29738;51.234;5.484;2022-12-29T18:18:15;7.50;99.90
44069;DHT22;29738;51.234;5.484;2022-12-29T18:20:42;7.50;99.90
44069;DHT22;29738;51.234;5.484;2022-12-29T18:23:24;7.50;99.90
44069;DHT22;29738;51.234;5.484;2022-12-29T18:25:58;7.40;99.90
44069;DHT22;29738;51.234;5.484;2022-12-29T18:28:25;7.40;99.90
44069;DHT22;29738;51.234;5.484;2022-12-29T18:30:52;7.50;99.90
44069;DHT22;29738;51.234;5.484;2022-12-29T18:33:19;7.60;99.90
44069;DHT22;29738;51.234;5.484;2022-12-29T18:35:50;7.50;99.90
44069;DHT22;29738;51.234;5.484;2022-12-29T18:38:16;7.50;99.90